createdAt,value
2022-11-17T00:00:50.767Z,37.70
2022-11-17T00:02:52.555Z,39.10
2022-11-17T00:04:54.160Z,34.35
2022-11-17T00:06:57.007Z,38.50
2022-11-17T00:08:58.786Z,31.92
2022-11-17T00:11:04.115Z,33.92
2022-11-17T00:13:24.243Z,35.25
2022-11-17T00:15:25.808Z,35.45
2022-11-17T00:17:27.934Z,33.92
2022-11-17T00:19:48.047Z,34.28
2022-11-17T00:21:49.868Z,34.53
2022-11-17T00:23:51.499Z,31.17
2022-11-17T00:25:53.090Z,32.80
2022-11-17T00:27:54.742Z,32.42
2022-11-17T00:29:57.035Z,34.45
2022-11-17T00:32:17.084Z,33.90
2022-11-17T00:34:23.487Z,28.33
2022-11-17T00:36:25.946Z,30.58
2022-11-17T00:38:27.569Z,32.30
2022-11-17T00:40:29.305Z,29.33
2022-11-17T00:42:30.895Z,28.95
2022-11-17T00:44:32.498Z,31.23
2022-11-17T00:46:35.100Z,30.38
2022-11-17T00:48:36.679Z,33.42
2022-11-17T00:50:38.309Z,30.50
2022-11-17T00:52:39.868Z,30.25
2022-11-17T00:54:41.476Z,30.80
2022-11-17T00:56:43.334Z,28.60
2022-11-17T00:58:45.106Z,29.45
2022-11-17T01:00:49.299Z,31.63
2022-11-17T01:02:51.016Z,32.50
2022-11-17T01:04:52.629Z,29.95
2022-11-17T01:06:54.339Z,32.25
2022-11-17T01:08:55.981Z,33.22
2022-11-17T01:11:04.912Z,27.35
2022-11-17T01:13:06.496Z,25.85
2022-11-17T01:15:08.763Z,24.83
2022-11-17T01:17:10.375Z,28.33
2022-11-17T01:19:14.143Z,30.45
2022-11-17T01:21:18.587Z,25.95
2022-11-17T01:23:20.152Z,25.73
2022-11-17T01:25:21.716Z,33.15
2022-11-17T01:27:23.399Z,30.55
2022-11-17T01:29:24.979Z,31.50
2022-11-17T01:31:29.131Z,32.33
2022-11-17T01:33:31.077Z,34.22
2022-11-17T01:35:34.609Z,32.95
2022-11-17T01:37:36.198Z,29.77
2022-11-17T01:39:37.831Z,31.77
2022-11-17T01:41:39.621Z,34.78
2022-11-17T01:43:52.705Z,31.27
2022-11-17T01:46:00.560Z,31.02
2022-11-17T01:48:03.623Z,32.38
2022-11-17T01:50:28.496Z,32.65
2022-11-17T01:52:31.002Z,33.60
2022-11-17T01:54:34.521Z,34.05
2022-11-17T01:56:40.169Z,31.15
2022-11-17T01:58:45.605Z,35.63
2022-11-17T02:00:47.549Z,28.15
2022-11-17T02:02:49.477Z,32.15
2022-11-17T02:05:07.246Z,30.27
2022-11-17T02:07:18.266Z,31.13
2022-11-17T02:09:20.230Z,28.70
2022-11-17T02:11:22.955Z,28.85
2022-11-17T02:13:24.715Z,30.75
2022-11-17T02:15:27.481Z,29.42
2022-11-17T02:17:42.935Z,23.75
2022-11-17T02:19:45.624Z,26.30
2022-11-17T02:22:08.945Z,27.60
2022-11-17T02:24:34.459Z,30.27
2022-11-17T02:26:57.398Z,28.48
2022-11-17T02:29:17.013Z,29.88
2022-11-17T02:31:51.513Z,28.25
2022-11-17T02:33:58.536Z,27.63
2022-11-17T02:36:18.148Z,27.08
2022-11-17T02:38:31.939Z,30.42
2022-11-17T02:40:54.096Z,23.73
2022-11-17T02:43:21.708Z,23.80
2022-11-17T02:45:29.582Z,24.05
2022-11-17T02:47:33.096Z,26.60
2022-11-17T02:49:39.860Z,22.73
2022-11-17T02:51:43.299Z,22.52
2022-11-17T02:53:45.124Z,22.50
2022-11-17T02:55:51.651Z,23.77
2022-11-17T02:57:53.464Z,24.00
2022-11-17T02:59:55.439Z,22.13
2022-11-17T03:02:07.696Z,28.50
2022-11-17T03:04:32.531Z,22.75
2022-11-17T03:06:45.276Z,23.40
2022-11-17T03:09:08.605Z,22.85
2022-11-17T03:11:11.148Z,22.35
2022-11-17T03:13:18.484Z,23.20
2022-11-17T03:15:33.036Z,21.13
2022-11-17T03:18:02.036Z,23.98
2022-11-17T03:20:14.452Z,23.80
2022-11-17T03:22:56.633Z,23.92
2022-11-17T03:25:02.201Z,21.80
2022-11-17T03:27:13.725Z,22.48
2022-11-17T03:29:18.385Z,19.15
2022-11-17T03:31:20.929Z,22.90
2022-11-17T03:33:23.815Z,22.25
2022-11-17T03:35:28.272Z,22.17
2022-11-17T03:37:32.037Z,21.77
2022-11-17T03:39:36.939Z,21.02
2022-11-17T03:41:42.380Z,20.85
2022-11-17T03:43:45.210Z,22.58
2022-11-17T03:45:52.396Z,23.52
2022-11-17T03:48:03.634Z,23.95
2022-11-17T03:50:19.196Z,22.08
2022-11-17T03:52:21.516Z,21.75
2022-11-17T03:54:23.381Z,25.92
2022-11-17T03:56:49.206Z,30.08
2022-11-17T03:59:02.128Z,25.35
2022-11-17T04:01:05.649Z,25.20
2022-11-17T04:03:07.291Z,26.98
2022-11-17T04:05:10.227Z,27.10
2022-11-17T04:07:11.881Z,25.87
2022-11-17T04:09:13.637Z,28.50
2022-11-17T04:11:33.532Z,27.85
2022-11-17T04:13:53.396Z,27.23
2022-11-17T04:15:59.274Z,29.70
2022-11-17T04:18:00.976Z,33.15
2022-11-17T04:20:02.573Z,27.77
2022-11-17T04:22:04.237Z,26.33
2022-11-17T04:24:06.334Z,24.75
2022-11-17T04:26:27.967Z,27.48
2022-11-17T04:28:39.754Z,27.98
2022-11-17T04:30:41.352Z,31.20
2022-11-17T04:32:42.920Z,28.95
2022-11-17T04:34:44.534Z,26.77
2022-11-17T04:36:46.699Z,31.85
2022-11-17T04:38:53.476Z,30.15
2022-11-17T04:41:22.948Z,30.70
2022-11-17T04:43:24.592Z,29.65
2022-11-17T04:45:26.187Z,31.65
2022-11-17T04:47:27.823Z,21.67
2022-11-17T04:49:32.055Z,27.40
2022-11-17T04:51:34.900Z,21.73
2022-11-17T04:53:37.283Z,20.30
2022-11-17T04:55:39.109Z,23.20
2022-11-17T04:57:40.679Z,23.35
2022-11-17T04:59:42.210Z,23.55
2022-11-17T05:01:44.426Z,21.58
2022-11-17T05:03:51.848Z,18.63
2022-11-17T05:05:53.421Z,21.83
2022-11-17T05:07:55.001Z,22.85
2022-11-17T05:09:56.746Z,21.25
2022-11-17T05:12:16.963Z,19.25
2022-11-17T05:14:20.339Z,20.63
2022-11-17T05:16:41.336Z,19.83
2022-11-17T05:18:43.923Z,24.20
2022-11-17T05:20:45.606Z,21.70
2022-11-17T05:23:07.039Z,21.13
2022-11-17T05:25:09.576Z,23.83
2022-11-17T05:27:11.160Z,21.35
2022-11-17T05:29:14.918Z,25.42
2022-11-17T05:31:17.067Z,24.35
2022-11-17T05:33:18.774Z,26.45
2022-11-17T05:35:20.308Z,22.00
2022-11-17T05:37:21.966Z,29.45
2022-11-17T05:39:23.576Z,25.05
2022-11-17T05:41:25.900Z,26.50
2022-11-17T05:43:27.743Z,21.60
2022-11-17T05:45:29.417Z,25.00
2022-11-17T05:47:30.999Z,23.52
2022-11-17T05:49:32.671Z,24.48
2022-11-17T05:51:34.343Z,20.83
2022-11-17T05:53:36.126Z,23.13
2022-11-17T05:55:37.988Z,26.17
2022-11-17T05:57:39.775Z,21.48
2022-11-17T05:59:45.082Z,22.40
2022-11-17T06:01:57.714Z,22.48
2022-11-17T06:04:02.997Z,20.38
2022-11-17T06:06:05.028Z,22.10
2022-11-17T06:08:07.110Z,22.02
2022-11-17T06:10:09.140Z,23.98
2022-11-17T06:12:12.081Z,24.15
2022-11-17T06:14:13.766Z,24.23
2022-11-17T06:16:18.492Z,20.08
2022-11-17T06:18:20.612Z,19.83
2022-11-17T06:20:25.864Z,20.38
2022-11-17T06:22:27.840Z,21.30
2022-11-17T06:24:29.466Z,24.63
2022-11-17T06:26:31.103Z,20.83
2022-11-17T06:28:34.276Z,22.20
2022-11-17T06:30:36.874Z,20.15
2022-11-17T06:32:43.234Z,19.20
2022-11-17T06:34:51.960Z,20.65
2022-11-17T06:36:56.640Z,24.02
2022-11-17T06:38:58.858Z,20.15
2022-11-17T06:41:00.498Z,26.13
2022-11-17T06:43:11.198Z,21.27
2022-11-17T06:45:12.900Z,21.67
2022-11-17T06:47:14.521Z,20.75
2022-11-17T06:49:16.299Z,20.73
2022-11-17T06:51:17.977Z,18.92
2022-11-17T06:53:19.754Z,19.90
2022-11-17T06:55:21.340Z,20.80
2022-11-17T06:57:23.075Z,22.20
2022-11-17T06:59:24.749Z,23.42
2022-11-17T07:01:26.514Z,19.77
2022-11-17T07:03:28.301Z,20.48
2022-11-17T07:05:31.826Z,15.18
2022-11-17T07:07:33.609Z,8.32
2022-11-17T07:09:35.418Z,7.47
2022-11-17T07:11:37.175Z,7.93
2022-11-17T07:13:39.065Z,4.53
2022-11-17T07:15:40.914Z,4.63
2022-11-17T07:17:42.588Z,4.85
2022-11-17T07:19:44.266Z,6.15
2022-11-17T07:21:45.963Z,4.93
2022-11-17T07:23:47.719Z,4.55
2022-11-17T07:25:52.897Z,5.05
2022-11-17T07:27:59.442Z,3.85
2022-11-17T07:30:01.077Z,4.68
2022-11-17T07:32:02.643Z,4.07
2022-11-17T07:34:04.384Z,3.53
2022-11-17T07:36:08.002Z,3.25
2022-11-17T07:38:09.635Z,2.35
2022-11-17T07:40:11.501Z,2.10
2022-11-17T07:42:13.123Z,2.08
2022-11-17T07:44:14.791Z,1.67
2022-11-17T07:46:16.521Z,0.88
2022-11-17T07:48:18.325Z,1.48
2022-11-17T07:50:20.037Z,1.48
2022-11-17T07:52:21.712Z,1.25
2022-11-17T07:54:23.624Z,1.23
2022-11-17T07:56:25.269Z,1.70
2022-11-17T07:58:26.944Z,1.30
2022-11-17T08:00:30.292Z,3.67
2022-11-17T08:02:32.202Z,1.50
2022-11-17T08:04:33.931Z,1.05
2022-11-17T08:06:36.656Z,1.80
2022-11-17T08:08:39.013Z,1.92
2022-11-17T08:10:41.137Z,1.13
2022-11-17T08:12:43.070Z,1.10
2022-11-17T08:14:44.732Z,1.33
2022-11-17T08:16:46.775Z,1.33
2022-11-17T08:18:52.079Z,1.58
2022-11-17T08:21:02.503Z,2.60
2022-11-17T08:23:04.399Z,2.50
2022-11-17T08:25:06.430Z,3.60
2022-11-17T08:27:08.096Z,1.58
2022-11-17T08:29:09.717Z,1.60
2022-11-17T08:31:11.401Z,1.65
2022-11-17T08:33:13.016Z,2.03
2022-11-17T08:35:15.127Z,1.60
2022-11-17T08:37:16.926Z,1.73
2022-11-17T08:39:18.526Z,1.02
2022-11-17T08:41:21.775Z,2.05
2022-11-17T08:43:23.778Z,1.10
2022-11-17T08:45:26.235Z,1.20
2022-11-17T08:47:27.876Z,1.05
2022-11-17T08:49:29.576Z,1.05
2022-11-17T08:51:31.255Z,1.20
2022-11-17T08:53:32.981Z,2.05
2022-11-17T08:55:40.927Z,2.80
2022-11-17T08:57:43.925Z,2.15
2022-11-17T08:59:45.628Z,1.52
2022-11-17T09:01:47.344Z,2.45
2022-11-17T09:03:49.224Z,2.17
2022-11-17T09:05:51.206Z,1.60
2022-11-17T09:07:53.024Z,3.08
2022-11-17T09:09:54.681Z,2.10
2022-11-17T09:11:56.320Z,1.65
2022-11-17T09:13:58.035Z,2.35
2022-11-17T09:16:03.801Z,1.45
2022-11-17T09:18:05.763Z,1.90
2022-11-17T09:20:07.653Z,1.35
2022-11-17T09:22:09.288Z,1.00
2022-11-17T09:24:11.307Z,1.90
2022-11-17T09:26:14.778Z,2.53
2022-11-17T09:28:16.414Z,1.23
2022-11-17T09:30:22.072Z,1.42
2022-11-17T09:32:23.751Z,2.35
2022-11-17T09:34:25.644Z,2.28
2022-11-17T09:36:27.509Z,2.33
2022-11-17T09:38:29.204Z,1.23
2022-11-17T09:40:37.524Z,3.33
2022-11-17T09:42:40.368Z,2.28
2022-11-17T09:44:48.658Z,1.77
2022-11-17T09:47:18.454Z,3.80
2022-11-17T09:49:41.373Z,1.65
2022-11-17T09:51:45.155Z,3.35
2022-11-17T09:56:01.294Z,2.45
2022-11-17T09:58:30.228Z,2.42
2022-11-17T10:00:32.363Z,3.47
2022-11-17T10:02:34.314Z,2.30
2022-11-17T10:04:36.053Z,2.22
2022-11-17T10:06:38.259Z,2.45
2022-11-17T10:09:01.904Z,2.15
2022-11-17T10:11:23.471Z,3.37
2022-11-17T10:13:34.851Z,1.98
2022-11-17T10:15:47.485Z,1.20
2022-11-17T10:17:50.641Z,2.72
2022-11-17T10:19:52.319Z,2.55
2022-11-17T10:22:03.174Z,2.30
2022-11-17T10:24:05.254Z,0.93
2022-11-17T10:26:13.139Z,1.90
2022-11-17T10:28:44.248Z,1.35
2022-11-17T10:30:54.174Z,1.75
2022-11-17T10:32:57.977Z,1.27
2022-11-17T10:37:31.949Z,3.17
2022-11-17T10:39:39.509Z,2.80
2022-11-17T10:41:43.156Z,2.30
2022-11-17T10:44:01.639Z,3.17
2022-11-17T10:46:17.099Z,2.15
2022-11-17T10:48:24.714Z,3.50
2022-11-17T10:50:27.786Z,4.70
2022-11-17T10:52:29.383Z,1.52
2022-11-17T10:54:31.011Z,1.52
2022-11-17T10:56:47.340Z,1.95
2022-11-17T10:59:15.627Z,2.30
2022-11-17T11:01:28.022Z,2.83
2022-11-17T11:03:36.142Z,4.82
2022-11-17T11:05:38.663Z,1.90
2022-11-17T11:07:40.651Z,3.33
2022-11-17T11:09:48.832Z,3.38
2022-11-17T11:11:52.083Z,2.42
2022-11-17T11:14:00.404Z,1.85
2022-11-17T11:16:02.100Z,3.45
2022-11-17T11:18:14.610Z,2.17
2022-11-17T11:20:18.646Z,2.25
2022-11-17T11:22:42.336Z,3.95
2022-11-17T11:25:02.396Z,3.78
2022-11-17T11:27:13.231Z,1.88
2022-11-17T11:29:18.875Z,2.88
2022-11-17T11:31:26.525Z,2.25
2022-11-17T11:33:38.415Z,2.25
2022-11-17T11:35:52.255Z,2.10
2022-11-17T11:37:59.741Z,2.33
2022-11-17T11:40:22.208Z,2.97
2022-11-17T11:42:45.954Z,2.92
2022-11-17T11:45:13.318Z,3.45
2022-11-17T11:47:39.998Z,3.42
2022-11-17T11:50:21.582Z,2.28
2022-11-17T11:52:27.815Z,2.20
2022-11-17T11:54:40.605Z,3.38
2022-11-17T11:56:44.507Z,4.70
2022-11-17T11:59:03.571Z,2.70
2022-11-17T12:01:06.971Z,1.90
2022-11-17T12:03:21.375Z,2.92
2022-11-17T12:06:27.282Z,2.88
2022-11-17T12:08:42.905Z,2.33
2022-11-17T12:11:24.024Z,3.30
2022-11-17T12:13:26.137Z,3.13
2022-11-17T12:15:31.807Z,2.13
2022-11-17T12:17:33.510Z,2.75
2022-11-17T12:19:44.312Z,3.50
2022-11-17T12:21:54.179Z,2.88
2022-11-17T12:24:18.231Z,2.00
2022-11-17T12:26:28.887Z,3.05
2022-11-17T12:28:39.236Z,3.50
2022-11-17T12:30:44.014Z,2.97
2022-11-17T12:32:48.742Z,2.97
2022-11-17T12:35:28.634Z,3.08
2022-11-17T12:37:30.319Z,3.20
2022-11-17T12:39:58.020Z,2.70
2022-11-17T12:42:07.525Z,2.15
2022-11-17T12:44:37.426Z,4.10
2022-11-17T12:46:39.198Z,2.15
2022-11-17T12:48:49.166Z,2.97
2022-11-17T12:51:01.956Z,2.58
2022-11-17T12:53:09.346Z,4.70
2022-11-17T12:55:13.883Z,2.85
2022-11-17T12:57:26.409Z,3.95
2022-11-17T12:59:51.180Z,2.63
2022-11-17T13:02:15.586Z,2.75
2022-11-17T13:04:43.761Z,3.60
2022-11-17T13:07:07.942Z,2.53
2022-11-17T13:09:12.477Z,1.98
2022-11-17T13:11:17.207Z,2.38
2022-11-17T13:13:24.023Z,2.63
2022-11-17T13:15:25.929Z,3.15
2022-11-17T13:17:32.113Z,2.90
2022-11-17T13:19:36.824Z,3.65
2022-11-17T13:21:38.564Z,3.13
2022-11-17T13:23:44.145Z,1.88
2022-11-17T13:25:45.886Z,2.88
2022-11-17T13:27:54.158Z,2.10
2022-11-17T13:30:16.176Z,2.83
2022-11-17T13:32:20.303Z,2.03
2022-11-17T13:34:21.986Z,2.20
2022-11-17T13:36:27.157Z,1.95
2022-11-17T13:38:28.890Z,2.75
2022-11-17T13:40:31.237Z,1.90
2022-11-17T13:42:33.450Z,2.25
2022-11-17T13:44:35.214Z,2.80
2022-11-17T13:46:37.002Z,3.65
2022-11-17T13:48:40.815Z,3.55
2022-11-17T13:52:47.147Z,2.53
2022-11-17T13:54:49.505Z,4.07
2022-11-17T13:57:15.518Z,3.55
2022-11-17T13:59:22.218Z,2.22
2022-11-17T14:01:28.509Z,2.78
2022-11-17T14:03:38.768Z,3.30
2022-11-17T14:05:55.001Z,3.78
2022-11-17T14:07:58.073Z,4.32
2022-11-17T14:10:21.349Z,3.55
2022-11-17T14:12:23.131Z,3.22
2022-11-17T14:14:32.579Z,4.95
2022-11-17T14:16:41.413Z,3.65
2022-11-17T14:18:43.019Z,4.55
2022-11-17T14:20:44.765Z,5.90
2022-11-17T14:23:25.645Z,7.40
2022-11-17T14:25:28.637Z,4.88
2022-11-17T14:27:30.499Z,3.97
2022-11-17T14:29:32.154Z,7.30
2022-11-17T14:31:33.976Z,7.00
2022-11-17T14:33:35.578Z,3.13
2022-11-17T14:35:37.226Z,3.28
2022-11-17T14:37:38.961Z,4.45
2022-11-17T14:39:40.610Z,9.20
2022-11-17T14:41:43.875Z,4.80
2022-11-17T14:43:45.716Z,3.65
2022-11-17T14:45:48.502Z,4.07
2022-11-17T14:47:50.196Z,4.47
2022-11-17T14:49:51.869Z,5.45
2022-11-17T14:51:55.531Z,14.48
2022-11-17T14:53:57.848Z,8.10
2022-11-17T14:56:06.719Z,8.88
2022-11-17T14:58:10.120Z,5.80
2022-11-17T15:00:18.873Z,7.50
2022-11-17T15:02:22.777Z,7.22
2022-11-17T15:06:46.255Z,11.75
2022-11-17T15:08:53.036Z,15.70
2022-11-17T15:10:55.366Z,14.95
2022-11-17T15:12:57.239Z,18.02
2022-11-17T15:14:59.094Z,13.05
2022-11-17T15:17:00.765Z,12.90
2022-11-17T15:19:02.466Z,10.73
2022-11-17T15:21:06.340Z,15.25
2022-11-17T15:23:08.339Z,11.55
2022-11-17T15:25:10.009Z,16.48
2022-11-17T15:27:12.518Z,13.75
2022-11-17T15:29:18.095Z,12.80
2022-11-17T15:31:20.596Z,12.27
2022-11-17T15:33:22.349Z,12.70
2022-11-17T15:35:24.637Z,15.70
2022-11-17T15:37:26.323Z,13.70
2022-11-17T15:39:28.189Z,17.88
2022-11-17T15:41:32.838Z,18.02
2022-11-17T15:43:36.565Z,14.20
2022-11-17T15:45:38.651Z,12.40
2022-11-17T15:47:40.276Z,15.68
2022-11-17T15:49:41.841Z,11.73
2022-11-17T15:51:43.490Z,11.13
2022-11-17T15:53:46.884Z,11.88
2022-11-17T15:55:48.506Z,14.00
2022-11-17T15:57:52.824Z,13.35
2022-11-17T15:59:54.575Z,12.82
2022-11-17T16:01:56.201Z,11.20
2022-11-17T16:04:01.249Z,15.57
2022-11-17T16:06:03.566Z,11.93
2022-11-17T16:08:05.469Z,12.45
2022-11-17T16:10:07.265Z,16.92
2022-11-17T16:12:08.963Z,13.95
2022-11-17T16:14:10.623Z,18.05
2022-11-17T16:16:13.491Z,14.38
2022-11-17T16:18:15.147Z,15.43
2022-11-17T16:20:18.529Z,12.68
2022-11-17T16:22:20.258Z,13.55
2022-11-17T16:24:21.859Z,17.02
2022-11-17T16:26:25.047Z,18.00
2022-11-17T16:28:27.153Z,14.82
2022-11-17T16:30:34.228Z,11.82
2022-11-17T16:32:36.977Z,14.27
2022-11-17T16:34:41.032Z,16.05
2022-11-17T16:36:43.566Z,15.25
2022-11-17T16:39:01.297Z,12.95
2022-11-17T16:41:03.733Z,11.73
2022-11-17T16:43:05.834Z,15.30
2022-11-17T16:45:08.055Z,16.55
2022-11-17T16:47:09.891Z,13.32
2022-11-17T16:49:13.638Z,15.27
2022-11-17T16:53:17.302Z,16.85
2022-11-17T16:55:18.986Z,12.90
2022-11-17T16:57:20.624Z,18.65
2022-11-17T16:59:22.257Z,17.90
2022-11-17T17:01:26.561Z,20.45
2022-11-17T17:03:28.150Z,16.13
2022-11-17T17:05:29.798Z,20.15
2022-11-17T17:07:32.010Z,19.60
2022-11-17T17:09:33.853Z,20.17
2022-11-17T17:11:36.201Z,16.55
2022-11-17T17:13:38.378Z,18.42
2022-11-17T17:15:39.984Z,20.98
2022-11-17T17:17:41.593Z,15.40
2022-11-17T17:19:43.276Z,19.02
2022-11-17T17:21:45.731Z,16.13
2022-11-17T17:23:47.495Z,14.73
2022-11-17T17:25:49.184Z,20.60
2022-11-17T17:27:50.812Z,18.13
2022-11-17T17:29:56.768Z,19.17
2022-11-17T17:31:58.442Z,21.48
2022-11-17T17:34:00.366Z,16.00
2022-11-17T17:36:06.927Z,17.88
2022-11-17T17:38:08.531Z,18.15
2022-11-17T17:40:11.190Z,19.10
2022-11-17T17:42:13.580Z,21.85
2022-11-17T17:44:19.558Z,19.55
2022-11-17T17:46:21.119Z,23.83
2022-11-17T17:48:22.697Z,17.48
2022-11-17T17:50:24.550Z,19.30
2022-11-17T17:52:26.310Z,19.77
2022-11-17T17:54:27.945Z,20.52
2022-11-17T17:56:30.729Z,23.27
2022-11-17T17:58:40.223Z,20.45
2022-11-17T18:00:41.861Z,18.95
2022-11-17T18:02:43.545Z,23.27
2022-11-17T18:04:45.210Z,20.77
2022-11-17T18:06:47.785Z,21.02
2022-11-17T18:08:50.161Z,20.02
2022-11-17T18:10:51.741Z,22.23
2022-11-17T18:12:53.407Z,24.70
2022-11-17T18:14:55.131Z,20.58
2022-11-17T18:16:56.916Z,21.23
2022-11-17T18:19:01.094Z,24.90
2022-11-17T18:21:08.455Z,17.77
2022-11-17T18:23:10.052Z,23.63
2022-11-17T18:25:15.197Z,22.80
2022-11-17T18:27:19.425Z,17.65
2022-11-17T18:29:21.141Z,18.42
2022-11-17T18:31:25.224Z,19.55
2022-11-17T18:33:27.151Z,17.35
2022-11-17T18:35:28.781Z,17.83
2022-11-17T18:37:31.149Z,17.55
2022-11-17T18:39:33.625Z,20.25
2022-11-17T18:41:36.011Z,23.50
2022-11-17T18:43:37.876Z,21.02
2022-11-17T18:45:39.700Z,30.23
2022-11-17T18:47:41.583Z,21.92
2022-11-17T18:49:43.267Z,24.70
2022-11-17T18:51:45.007Z,26.83
2022-11-17T18:53:46.821Z,32.80
2022-11-17T18:55:48.448Z,35.58
2022-11-17T18:57:50.294Z,28.05
2022-11-17T18:59:51.941Z,30.15
2022-11-17T19:01:53.734Z,36.85
2022-11-17T19:03:57.408Z,36.67
2022-11-17T19:05:59.187Z,29.48
2022-11-17T19:08:01.018Z,37.70
2022-11-17T19:10:02.703Z,35.20
2022-11-17T19:12:04.571Z,31.42
2022-11-17T19:14:06.481Z,33.60
2022-11-17T19:16:08.634Z,32.75
2022-11-17T19:18:10.630Z,39.30
2022-11-17T19:20:13.527Z,37.38
2022-11-17T19:22:15.239Z,43.10
2022-11-17T19:24:17.271Z,44.38
2022-11-17T19:26:24.612Z,37.97
2022-11-17T19:28:26.386Z,38.65
2022-11-17T19:30:28.129Z,36.28
2022-11-17T19:32:29.800Z,37.67
2022-11-17T19:34:31.479Z,37.25
2022-11-17T19:36:34.386Z,31.60
2022-11-17T19:38:38.626Z,35.53
2022-11-17T19:40:40.304Z,37.75
2022-11-17T19:42:42.159Z,35.10
2022-11-17T19:44:43.783Z,34.65
2022-11-17T19:46:45.532Z,31.75
2022-11-17T19:48:47.163Z,35.25
2022-11-17T19:50:54.459Z,33.10
2022-11-17T19:52:57.420Z,35.83
2022-11-17T19:54:59.282Z,33.17
2022-11-17T19:57:00.973Z,33.35
2022-11-17T19:59:03.574Z,31.55
2022-11-17T20:01:13.515Z,33.30
2022-11-17T20:03:18.215Z,32.15
2022-11-17T20:05:19.826Z,32.78
2022-11-17T20:07:21.507Z,35.83
2022-11-17T20:09:23.262Z,37.25
2022-11-17T20:11:26.983Z,35.63
2022-11-17T20:13:31.061Z,34.80
2022-11-17T20:15:34.801Z,33.25
2022-11-17T20:17:36.786Z,28.85
2022-11-17T20:19:38.719Z,36.83
2022-11-17T20:21:40.383Z,30.85
2022-11-17T20:23:43.512Z,32.35
2022-11-17T20:25:45.488Z,34.15
2022-11-17T20:27:47.075Z,33.28
2022-11-17T20:29:48.735Z,33.72
2022-11-17T20:31:50.391Z,28.40
2022-11-17T20:33:56.439Z,29.08
2022-11-17T20:36:01.198Z,31.27
2022-11-17T20:38:03.451Z,34.15
2022-11-17T20:40:05.728Z,32.33
2022-11-17T20:42:07.266Z,32.63
2022-11-17T20:44:23.935Z,36.58
2022-11-17T20:46:26.309Z,33.28
2022-11-17T20:48:29.214Z,28.52
2022-11-17T20:50:32.259Z,28.37
2022-11-17T20:52:33.865Z,29.25
2022-11-17T20:54:35.541Z,34.60
2022-11-17T20:56:37.374Z,28.00
2022-11-17T20:58:39.245Z,24.52
2022-11-17T21:00:40.931Z,26.05
2022-11-17T21:02:42.708Z,24.67
2022-11-17T21:04:44.891Z,29.77
2022-11-17T21:06:46.548Z,26.60
2022-11-17T21:08:48.250Z,29.92
2022-11-17T21:11:01.464Z,27.35
2022-11-17T21:13:03.092Z,27.10
2022-11-17T21:15:05.318Z,25.75
2022-11-17T21:17:26.930Z,27.55
2022-11-17T21:19:28.709Z,26.77
2022-11-17T21:21:30.512Z,29.80
2022-11-17T21:23:32.372Z,27.60
2022-11-17T21:25:36.361Z,24.80
2022-11-17T21:27:38.042Z,26.13
2022-11-17T21:29:39.672Z,27.13
2022-11-17T21:31:41.332Z,27.02
2022-11-17T21:33:43.925Z,27.10
2022-11-17T21:35:45.477Z,28.20
2022-11-17T21:37:47.178Z,29.33
2022-11-17T21:39:48.849Z,29.33
2022-11-17T21:41:50.453Z,35.78
2022-11-17T21:43:53.751Z,26.50
2022-11-17T21:45:55.524Z,30.88
2022-11-17T21:47:59.501Z,30.33
2022-11-17T21:50:01.301Z,30.88
2022-11-17T21:52:03.084Z,42.22
2022-11-17T21:54:07.260Z,30.63
2022-11-17T21:56:08.884Z,31.77
2022-11-17T21:58:10.640Z,35.35
2022-11-17T22:00:12.608Z,29.63
2022-11-17T22:02:14.364Z,27.52
2022-11-17T22:04:16.025Z,33.20
2022-11-17T22:06:19.739Z,26.77
2022-11-17T22:08:21.355Z,31.17
2022-11-17T22:10:23.292Z,27.92
2022-11-17T22:12:25.100Z,25.30
2022-11-17T22:14:26.932Z,27.77
2022-11-17T22:16:28.571Z,32.20
2022-11-17T22:18:30.530Z,36.90
2022-11-17T22:20:32.187Z,29.10
2022-11-17T22:22:33.853Z,30.15
2022-11-17T22:24:35.440Z,35.40
2022-11-17T22:26:38.587Z,32.33
2022-11-17T22:28:40.434Z,27.80
2022-11-17T22:30:42.091Z,30.52
2022-11-17T22:32:45.376Z,37.92
2022-11-17T22:34:47.445Z,33.67
2022-11-17T22:36:49.058Z,30.00
2022-11-17T22:38:51.672Z,30.02
2022-11-17T22:41:02.562Z,34.63
2022-11-17T22:43:04.758Z,33.58
2022-11-17T22:45:07.323Z,28.10
2022-11-17T22:47:08.987Z,30.70
2022-11-17T22:49:10.714Z,27.48
2022-11-17T22:51:12.786Z,30.67
2022-11-17T22:53:14.517Z,33.80
2022-11-17T22:55:16.258Z,30.08
2022-11-17T22:57:17.924Z,35.22
2022-11-17T22:59:21.192Z,34.55
2022-11-17T23:01:22.872Z,33.03
2022-11-17T23:03:24.766Z,33.92
2022-11-17T23:05:26.461Z,30.42
2022-11-17T23:07:28.174Z,31.88
2022-11-17T23:09:29.798Z,33.40
2022-11-17T23:11:38.723Z,35.85
2022-11-17T23:13:40.373Z,28.95
2022-11-17T23:15:42.005Z,33.83
2022-11-17T23:17:43.755Z,31.45
2022-11-17T23:19:45.409Z,32.70
2022-11-17T23:21:47.031Z,32.28
2022-11-17T23:23:48.956Z,32.30
2022-11-17T23:25:50.547Z,27.33
2022-11-17T23:27:52.108Z,26.52
2022-11-17T23:29:54.132Z,28.95
2022-11-17T23:31:55.891Z,25.27
2022-11-17T23:34:16.414Z,29.38
2022-11-17T23:36:20.435Z,29.52
2022-11-17T23:38:22.083Z,28.30
2022-11-17T23:40:24.971Z,30.27
2022-11-17T23:42:32.119Z,27.13
2022-11-17T23:44:34.175Z,25.95
2022-11-17T23:46:35.781Z,28.88
2022-11-17T23:48:37.618Z,28.20
2022-11-17T23:50:39.202Z,25.15
2022-11-17T23:52:40.850Z,25.10
2022-11-17T23:54:42.531Z,27.38
2022-11-17T23:56:44.175Z,27.80
2022-11-17T23:58:45.924Z,32.50
